createdAt,value
2023-02-24T00:01:29.500Z,98.20
2023-02-24T00:04:01.772Z,97.40
2023-02-24T00:06:38.127Z,97.30
2023-02-24T00:09:08.406Z,98.80
2023-02-24T00:11:37.284Z,99.90
2023-02-24T00:14:10.071Z,98.30
2023-02-24T00:16:38.646Z,96.80
2023-02-24T00:19:08.085Z,96.70
2023-02-24T00:21:36.759Z,96.90
2023-02-24T00:24:04.823Z,96.70
2023-02-24T00:26:33.018Z,97.30
2023-02-24T00:29:05.509Z,99.00
2023-02-24T00:31:34.429Z,97.00
2023-02-24T00:34:03.425Z,96.80
2023-02-24T00:36:36.144Z,96.30
2023-02-24T00:39:09.352Z,96.70
2023-02-24T00:41:38.665Z,98.10
2023-02-24T00:44:12.020Z,99.80
2023-02-24T00:46:41.700Z,99.90
2023-02-24T00:49:17.104Z,99.90
2023-02-24T00:51:54.196Z,99.40
2023-02-24T00:54:32.791Z,99.10
2023-02-24T00:57:03.943Z,98.70
2023-02-24T00:59:34.262Z,99.10
2023-02-24T01:02:03.594Z,99.20
2023-02-24T01:04:38.476Z,98.50
2023-02-24T01:07:10.740Z,98.20
2023-02-24T01:09:40.428Z,97.60
2023-02-24T01:12:29.827Z,97.90
2023-02-24T01:14:57.839Z,98.20
2023-02-24T01:17:28.809Z,98.30
2023-02-24T01:20:07.574Z,95.50
2023-02-24T01:22:39.662Z,94.70
2023-02-24T01:25:09.065Z,94.40
2023-02-24T01:27:40.763Z,94.60
2023-02-24T01:30:15.538Z,96.10
2023-02-24T01:32:57.434Z,97.90
2023-02-24T01:35:26.920Z,96.00
2023-02-24T01:37:56.127Z,95.70
2023-02-24T01:40:34.508Z,95.10
2023-02-24T01:43:02.378Z,96.00
2023-02-24T01:45:39.746Z,98.00
2023-02-24T01:48:11.062Z,98.10
2023-02-24T01:50:40.015Z,97.00
2023-02-24T01:53:15.498Z,95.80
2023-02-24T01:55:49.277Z,96.00
2023-02-24T01:58:23.300Z,95.70
2023-02-24T02:00:57.792Z,97.30
2023-02-24T02:03:38.897Z,97.60
2023-02-24T02:06:09.145Z,95.60
2023-02-24T02:08:48.299Z,97.20
2023-02-24T02:11:21.231Z,96.00
2023-02-24T02:13:52.072Z,98.10
2023-02-24T02:16:49.386Z,98.70
2023-02-24T02:19:59.800Z,98.80
2023-02-24T02:23:09.489Z,98.00
2023-02-24T02:26:10.799Z,98.40
2023-02-24T02:29:10.640Z,98.10
2023-02-24T02:32:08.584Z,98.50
2023-02-24T02:34:50.946Z,98.40
2023-02-24T02:37:33.315Z,97.80
2023-02-24T02:40:24.564Z,97.50
2023-02-24T02:42:58.863Z,97.80
2023-02-24T02:45:33.199Z,98.20
2023-02-24T02:48:15.270Z,98.60
2023-02-24T02:50:50.927Z,98.10
2023-02-24T02:53:27.540Z,97.50
2023-02-24T02:56:04.202Z,96.70
2023-02-24T02:58:36.224Z,97.60
2023-02-24T03:01:08.296Z,98.40
2023-02-24T03:03:42.582Z,98.10
2023-02-24T03:06:16.276Z,97.50
2023-02-24T03:08:53.457Z,97.40
2023-02-24T03:11:22.076Z,97.40
2023-02-24T03:14:05.053Z,97.10
2023-02-24T03:16:34.614Z,98.00
2023-02-24T03:19:07.285Z,97.00
2023-02-24T03:21:39.843Z,96.40
2023-02-24T03:24:24.292Z,95.30
2023-02-24T03:27:00.792Z,97.00
2023-02-24T03:29:33.908Z,97.80
2023-02-24T03:32:23.603Z,98.30
2023-02-24T03:34:56.893Z,97.70
2023-02-24T03:37:33.754Z,97.30
2023-02-24T03:40:14.875Z,97.50
2023-02-24T03:42:48.688Z,96.80
2023-02-24T03:45:19.394Z,97.90
2023-02-24T03:47:49.669Z,98.10
2023-02-24T03:50:22.865Z,98.10
2023-02-24T03:53:05.188Z,98.10
2023-02-24T03:55:54.806Z,97.90
2023-02-24T03:58:32.335Z,98.00
2023-02-24T04:01:20.531Z,97.80
2023-02-24T04:04:00.297Z,97.70
2023-02-24T04:06:36.863Z,97.50
2023-02-24T04:09:13.536Z,97.40
2023-02-24T04:11:48.328Z,97.70
2023-02-24T04:14:24.843Z,97.90
2023-02-24T04:17:01.002Z,97.50
2023-02-24T04:19:33.179Z,97.80
2023-02-24T04:22:01.796Z,97.70
2023-02-24T04:24:51.730Z,96.30
2023-02-24T04:27:20.801Z,97.50
2023-02-24T04:29:52.925Z,96.90
2023-02-24T04:32:28.424Z,94.50
2023-02-24T04:35:03.174Z,94.60
2023-02-24T04:37:37.204Z,93.70
2023-02-24T04:40:12.256Z,95.80
2023-02-24T04:42:49.135Z,97.30
2023-02-24T04:45:18.642Z,95.60
2023-02-24T04:47:49.417Z,95.50
2023-02-24T04:50:22.851Z,96.90
2023-02-24T04:52:51.975Z,97.60
2023-02-24T04:55:23.327Z,97.00
2023-02-24T04:57:53.589Z,97.10
2023-02-24T05:00:26.587Z,97.90
2023-02-24T05:03:00.231Z,97.90
2023-02-24T05:05:28.545Z,96.90
2023-02-24T05:08:02.936Z,97.40
2023-02-24T05:10:36.858Z,97.30
2023-02-24T05:13:09.223Z,95.20
2023-02-24T05:15:50.014Z,97.00
2023-02-24T05:18:20.439Z,97.40
2023-02-24T05:21:08.725Z,96.90
2023-02-24T05:23:40.171Z,95.30
2023-02-24T05:26:32.123Z,96.20
2023-02-24T05:29:01.909Z,97.50
2023-02-24T05:31:33.751Z,97.60
2023-02-24T05:34:03.929Z,97.00
2023-02-24T05:36:34.769Z,93.60
2023-02-24T05:39:12.153Z,94.10
2023-02-24T05:41:43.153Z,96.60
2023-02-24T05:44:14.152Z,97.70
2023-02-24T05:46:44.509Z,97.50
2023-02-24T05:49:15.252Z,97.50
2023-02-24T05:51:54.690Z,97.30
2023-02-24T05:54:24.221Z,97.10
2023-02-24T05:57:02.487Z,96.70
2023-02-24T05:59:34.024Z,95.00
2023-02-24T06:02:07.122Z,96.50
2023-02-24T06:04:53.752Z,94.00
2023-02-24T06:07:26.844Z,96.30
2023-02-24T06:09:57.389Z,93.50
2023-02-24T06:12:28.665Z,93.70
2023-02-24T06:14:58.043Z,91.20
2023-02-24T06:17:28.301Z,92.00
2023-02-24T06:19:56.380Z,91.70
2023-02-24T06:22:30.212Z,93.10
2023-02-24T06:24:58.090Z,92.30
2023-02-24T06:27:33.129Z,92.20
2023-02-24T06:30:10.093Z,95.70
2023-02-24T06:32:38.164Z,94.90
2023-02-24T06:35:06.606Z,94.00
2023-02-24T06:37:35.771Z,96.00
2023-02-24T06:40:15.826Z,96.00
2023-02-24T06:42:49.554Z,97.20
2023-02-24T06:45:18.120Z,96.30
2023-02-24T06:47:48.703Z,94.70
2023-02-24T06:50:20.106Z,90.10
2023-02-24T06:52:53.160Z,92.60
2023-02-24T06:55:27.082Z,94.90
2023-02-24T06:57:58.907Z,94.70
2023-02-24T07:00:36.990Z,94.30
2023-02-24T07:03:17.384Z,95.10
2023-02-24T07:05:54.316Z,95.00
2023-02-24T07:08:24.196Z,94.20
2023-02-24T07:10:59.787Z,93.40
2023-02-24T07:13:29.868Z,92.00
2023-02-24T07:16:04.007Z,93.90
2023-02-24T07:18:40.499Z,95.20
2023-02-24T07:21:14.137Z,94.50
2023-02-24T07:23:49.652Z,87.20
2023-02-24T07:26:23.063Z,88.90
2023-02-24T07:28:55.004Z,90.30
2023-02-24T07:31:25.842Z,91.60
2023-02-24T07:33:57.580Z,99.00
2023-02-24T07:36:29.893Z,94.70
2023-02-24T07:38:59.849Z,98.00
2023-02-24T07:41:31.459Z,97.30
2023-02-24T07:44:09.479Z,97.70
2023-02-24T07:46:39.839Z,97.00
2023-02-24T07:49:09.641Z,95.00
2023-02-24T07:51:44.928Z,96.10
2023-02-24T07:54:15.658Z,95.70
2023-02-24T07:56:48.756Z,94.60
2023-02-24T07:59:19.544Z,94.40
2023-02-24T08:01:55.625Z,94.50
2023-02-24T08:04:32.844Z,94.80
2023-02-24T08:07:03.220Z,94.80
2023-02-24T08:10:12.383Z,94.70
2023-02-24T08:12:47.471Z,94.10
2023-02-24T08:18:15.018Z,94.00
2023-02-24T08:20:52.198Z,92.80
2023-02-24T08:23:20.267Z,93.10
2023-02-24T08:26:02.676Z,94.10
2023-02-24T08:28:31.782Z,92.50
2023-02-24T08:31:04.556Z,85.10
2023-02-24T08:33:32.617Z,80.80
2023-02-24T08:36:06.773Z,78.80
2023-02-24T08:38:44.882Z,79.10
2023-02-24T08:41:17.959Z,80.80
2023-02-24T08:43:47.373Z,79.40
2023-02-24T08:46:26.095Z,79.40
2023-02-24T08:48:56.406Z,79.20
2023-02-24T08:51:29.619Z,79.10
2023-02-24T08:54:04.734Z,78.90
2023-02-24T08:56:34.661Z,78.40
2023-02-24T08:59:06.294Z,78.20
2023-02-24T09:02:04.325Z,79.00
2023-02-24T09:04:34.485Z,78.70
2023-02-24T09:07:11.864Z,78.90
2023-02-24T09:09:42.109Z,78.20
2023-02-24T09:12:21.658Z,79.90
2023-02-24T09:14:55.305Z,80.30
2023-02-24T09:17:49.620Z,85.10
2023-02-24T09:20:52.000Z,86.60
2023-02-24T09:23:20.974Z,90.50
2023-02-24T09:25:58.119Z,87.50
2023-02-24T09:28:32.761Z,89.00
2023-02-24T09:31:04.812Z,85.70
2023-02-24T09:33:38.727Z,92.60
2023-02-24T09:36:12.917Z,91.40
2023-02-24T09:39:00.957Z,91.30
2023-02-24T09:41:34.147Z,92.00
2023-02-24T09:44:07.381Z,91.60
2023-02-24T09:46:42.375Z,94.30
2023-02-24T09:49:17.995Z,94.20
2023-02-24T09:54:50.597Z,93.10
2023-02-24T09:57:37.199Z,94.10
2023-02-24T10:00:33.473Z,93.70
2023-02-24T10:03:21.465Z,91.10
2023-02-24T10:05:59.721Z,93.20
2023-02-24T10:08:38.212Z,92.40
2023-02-24T10:11:10.005Z,94.40
2023-02-24T10:13:43.462Z,93.90
2023-02-24T10:16:23.754Z,94.90
2023-02-24T10:19:01.014Z,93.00
2023-02-24T10:21:50.394Z,90.10
2023-02-24T10:24:30.660Z,95.40
2023-02-24T10:27:08.367Z,94.10
2023-02-24T10:29:50.996Z,95.00
2023-02-24T10:32:33.745Z,95.80
2023-02-24T10:35:06.142Z,92.90
2023-02-24T10:37:42.662Z,96.10
2023-02-24T10:40:26.384Z,95.80
2023-02-24T10:43:10.324Z,95.30
2023-02-24T10:45:45.106Z,94.90
2023-02-24T10:48:40.191Z,91.70
2023-02-24T10:51:19.481Z,91.90
2023-02-24T10:54:09.952Z,95.40
2023-02-24T10:56:44.321Z,96.10
2023-02-24T10:59:33.522Z,96.40
2023-02-24T11:02:06.754Z,94.20
2023-02-24T11:05:06.968Z,93.00
2023-02-24T11:07:46.124Z,96.10
2023-02-24T11:10:28.442Z,96.60
2023-02-24T11:13:17.381Z,96.50
2023-02-24T11:16:06.154Z,96.50
2023-02-24T11:18:35.116Z,96.80
2023-02-24T11:21:10.657Z,97.70
2023-02-24T11:23:43.058Z,97.40
2023-02-24T11:26:19.853Z,97.30
2023-02-24T11:29:28.727Z,97.80
2023-02-24T11:32:15.253Z,97.70
2023-02-24T11:34:49.481Z,97.80
2023-02-24T11:37:34.450Z,97.60
2023-02-24T11:40:08.552Z,98.10
2023-02-24T11:42:46.812Z,96.50
2023-02-24T11:45:29.313Z,96.60
2023-02-24T11:48:01.623Z,98.10
2023-02-24T11:50:43.593Z,98.30
2023-02-24T11:53:40.962Z,98.50
2023-02-24T11:56:22.991Z,97.90
2023-02-24T11:59:02.984Z,99.20
2023-02-24T12:01:35.913Z,98.00
2023-02-24T12:04:19.867Z,99.20
2023-02-24T12:06:58.425Z,95.50
2023-02-24T12:09:34.708Z,97.70
2023-02-24T12:12:17.066Z,99.60
2023-02-24T12:14:52.892Z,99.20
2023-02-24T12:17:31.972Z,95.70
2023-02-24T12:20:17.271Z,99.90
2023-02-24T12:22:50.770Z,99.90
2023-02-24T12:25:26.144Z,99.60
2023-02-24T12:28:14.314Z,98.30
2023-02-24T12:30:57.502Z,99.20
2023-02-24T12:33:43.863Z,99.30
2023-02-24T12:36:30.787Z,99.20
2023-02-24T12:39:17.858Z,98.90
2023-02-24T12:42:01.992Z,98.70
2023-02-24T12:44:42.572Z,98.50
2023-02-24T12:47:15.028Z,98.60
2023-02-24T12:49:55.545Z,92.70
2023-02-24T12:52:34.504Z,99.00
2023-02-24T12:55:09.793Z,99.60
2023-02-24T12:57:51.116Z,99.10
2023-02-24T13:00:25.775Z,99.30
2023-02-24T13:06:26.380Z,99.60
2023-02-24T13:09:17.748Z,97.90
2023-02-24T13:11:53.011Z,99.10
2023-02-24T13:14:30.156Z,99.10
2023-02-24T13:17:17.445Z,99.10
2023-02-24T13:19:58.089Z,99.50
2023-02-24T13:22:34.575Z,99.30
2023-02-24T13:25:25.433Z,99.20
2023-02-24T13:28:08.974Z,99.20
2023-02-24T13:30:59.071Z,99.30
2023-02-24T13:33:35.424Z,99.50
2023-02-24T13:36:16.847Z,99.20
2023-02-24T13:38:46.763Z,99.50
2023-02-24T13:41:41.650Z,98.90
2023-02-24T13:44:50.673Z,99.40
2023-02-24T13:48:09.345Z,99.20
2023-02-24T13:51:01.167Z,99.60
2023-02-24T13:53:58.798Z,95.80
2023-02-24T13:56:38.333Z,96.40
2023-02-24T13:59:20.801Z,98.10
2023-02-24T14:01:51.477Z,96.20
2023-02-24T14:04:22.398Z,98.40
2023-02-24T14:06:53.635Z,95.80
2023-02-24T14:09:29.348Z,99.00
2023-02-24T14:12:01.314Z,96.80
2023-02-24T14:14:30.265Z,99.80
2023-02-24T14:17:03.386Z,95.70
2023-02-24T14:19:34.090Z,99.90
2023-02-24T14:22:02.510Z,99.70
2023-02-24T14:24:34.047Z,99.90
2023-02-24T14:27:03.191Z,98.80
2023-02-24T14:29:43.263Z,97.90
2023-02-24T14:32:20.630Z,93.90
2023-02-24T14:34:49.093Z,93.60
2023-02-24T14:37:25.863Z,97.00
2023-02-24T14:39:56.759Z,99.90
2023-02-24T14:42:28.000Z,99.90
2023-02-24T14:44:58.405Z,97.60
2023-02-24T14:47:28.679Z,99.40
2023-02-24T14:50:06.837Z,97.80
2023-02-24T14:52:39.753Z,98.60
2023-02-24T14:55:21.210Z,99.90
2023-02-24T14:57:59.607Z,99.90
2023-02-24T15:00:31.032Z,99.90
2023-02-24T15:03:07.113Z,99.90
2023-02-24T15:05:35.171Z,99.90
2023-02-24T15:08:03.792Z,97.20
2023-02-24T15:10:33.391Z,99.90
2023-02-24T15:13:10.930Z,99.90
2023-02-24T15:15:42.585Z,99.90
2023-02-24T15:18:29.017Z,99.90
2023-02-24T15:21:04.428Z,99.90
2023-02-24T15:23:34.637Z,99.90
2023-02-24T15:26:08.516Z,99.90
2023-02-24T15:28:40.432Z,99.90
2023-02-24T15:31:18.841Z,99.90
2023-02-24T15:33:56.128Z,99.90
2023-02-24T15:36:26.822Z,96.30
2023-02-24T15:38:58.156Z,95.70
2023-02-24T15:41:38.147Z,95.40
2023-02-24T15:44:06.028Z,94.10
2023-02-24T15:46:37.849Z,94.40
2023-02-24T15:49:11.034Z,95.30
2023-02-24T15:51:42.655Z,96.70
2023-02-24T15:54:13.727Z,97.30
2023-02-24T15:56:51.486Z,96.60
2023-02-24T15:59:25.021Z,94.60
2023-02-24T16:01:52.958Z,99.60
2023-02-24T16:04:21.736Z,99.40
2023-02-24T16:06:55.022Z,99.10
2023-02-24T16:09:33.450Z,99.30
2023-02-24T16:12:08.168Z,97.80
2023-02-24T16:14:38.528Z,96.20
2023-02-24T16:17:18.214Z,99.90
2023-02-24T16:19:48.492Z,99.90
2023-02-24T16:22:23.733Z,98.90
2023-02-24T16:24:51.820Z,99.10
2023-02-24T16:27:23.324Z,99.90
2023-02-24T16:29:54.541Z,99.90
2023-02-24T16:32:36.687Z,99.90
2023-02-24T16:35:10.921Z,99.90
2023-02-24T16:37:41.943Z,99.90
2023-02-24T16:40:21.085Z,98.90
2023-02-24T16:42:51.529Z,99.90
2023-02-24T16:45:19.807Z,99.90
2023-02-24T16:47:48.954Z,99.90
2023-02-24T16:50:27.992Z,99.10
2023-02-24T16:52:58.042Z,97.90
2023-02-24T16:55:26.557Z,99.40
2023-02-24T16:58:03.178Z,97.70
2023-02-24T17:00:37.534Z,97.40
2023-02-24T17:03:08.527Z,96.10
2023-02-24T17:05:36.368Z,99.90
2023-02-24T17:08:11.773Z,99.90
2023-02-24T17:10:55.195Z,99.90
2023-02-24T17:13:24.441Z,99.90
2023-02-24T17:15:58.451Z,99.90
2023-02-24T17:18:27.388Z,99.90
2023-02-24T17:20:57.416Z,98.50
2023-02-24T17:23:25.246Z,99.90
2023-02-24T17:25:55.278Z,98.40
2023-02-24T17:28:38.486Z,99.90
2023-02-24T17:31:09.672Z,99.50
2023-02-24T17:33:39.397Z,99.90
2023-02-24T17:36:10.380Z,99.90
2023-02-24T17:38:38.381Z,99.90
2023-02-24T17:41:11.784Z,99.90
2023-02-24T17:43:43.286Z,99.40
2023-02-24T17:46:11.234Z,97.50
2023-02-24T17:48:39.338Z,99.90
2023-02-24T17:51:13.965Z,97.80
2023-02-24T17:53:51.461Z,99.90
2023-02-24T17:56:19.448Z,97.10
2023-02-24T17:58:58.652Z,99.80
2023-02-24T18:01:32.733Z,99.90
2023-02-24T18:04:00.763Z,99.90
2023-02-24T18:06:28.703Z,99.90
2023-02-24T18:08:56.608Z,99.90
2023-02-24T18:11:32.156Z,99.90
2023-02-24T18:14:04.585Z,97.30
2023-02-24T18:16:32.578Z,99.90
2023-02-24T18:19:00.466Z,99.10
2023-02-24T18:21:31.131Z,99.90
2023-02-24T18:24:01.408Z,99.90
2023-02-24T18:26:35.573Z,99.90
2023-02-24T18:29:05.003Z,98.20
2023-02-24T18:31:37.189Z,99.20
2023-02-24T18:34:05.256Z,99.10
2023-02-24T18:36:33.105Z,99.90
2023-02-24T18:39:00.977Z,99.90
2023-02-24T18:41:28.879Z,99.90
2023-02-24T18:43:58.965Z,99.90
2023-02-24T18:46:34.100Z,99.90
2023-02-24T18:49:25.983Z,99.90
2023-02-24T18:52:01.358Z,99.90
2023-02-24T18:54:29.236Z,99.90
2023-02-24T18:56:57.088Z,99.90
2023-02-24T18:59:33.781Z,99.90
2023-02-24T19:02:06.069Z,99.90
2023-02-24T19:04:33.980Z,99.90
2023-02-24T19:07:01.877Z,99.90
2023-02-24T19:09:35.837Z,99.90
2023-02-24T19:12:09.491Z,98.30
2023-02-24T19:14:40.121Z,97.30
2023-02-24T19:17:15.444Z,99.90
2023-02-24T19:19:43.600Z,99.90
2023-02-24T19:22:11.511Z,99.90
2023-02-24T19:24:42.971Z,99.90
2023-02-24T19:27:10.835Z,99.90
2023-02-24T19:29:41.771Z,99.90
2023-02-24T19:32:09.756Z,99.90
2023-02-24T19:34:59.488Z,99.90
2023-02-24T19:37:27.481Z,99.90
2023-02-24T19:40:04.515Z,99.90
2023-02-24T19:42:35.281Z,99.90
2023-02-24T19:45:12.436Z,99.90
2023-02-24T19:47:44.087Z,99.90
2023-02-24T19:50:14.667Z,99.90
2023-02-24T19:52:42.837Z,99.90
2023-02-24T19:55:11.989Z,99.50
2023-02-24T19:57:40.089Z,99.90
2023-02-24T20:00:14.536Z,99.90
2023-02-24T20:02:42.389Z,99.90
2023-02-24T20:05:17.169Z,99.90
2023-02-24T20:07:45.015Z,99.90
2023-02-24T20:10:15.627Z,99.90
2023-02-24T20:12:44.810Z,99.90
2023-02-24T20:15:18.905Z,99.90
2023-02-24T20:17:55.581Z,99.90
2023-02-24T20:20:35.870Z,99.90
2023-02-24T20:23:03.717Z,99.90
2023-02-24T20:25:31.578Z,99.90
2023-02-24T20:28:05.483Z,99.90
2023-02-24T20:30:33.388Z,99.90
2023-02-24T20:33:01.282Z,99.90
2023-02-24T20:35:33.540Z,99.90
2023-02-24T20:38:10.387Z,99.90
2023-02-24T20:40:38.611Z,99.90
2023-02-24T20:43:08.895Z,99.90
2023-02-24T20:45:41.013Z,99.90
2023-02-24T20:48:08.987Z,99.90
2023-02-24T20:50:38.229Z,99.90
2023-02-24T20:53:08.783Z,99.90
2023-02-24T20:55:47.336Z,99.90
2023-02-24T20:58:18.401Z,99.90
2023-02-24T21:00:46.250Z,99.90
2023-02-24T21:03:21.920Z,99.90
2023-02-24T21:06:01.432Z,99.90
2023-02-24T21:08:35.794Z,99.90
2023-02-24T21:11:03.711Z,99.90
2023-02-24T21:13:34.414Z,99.90
2023-02-24T21:16:05.663Z,99.90
2023-02-24T21:18:36.906Z,99.90
2023-02-24T21:21:06.611Z,99.90
2023-02-24T21:23:39.005Z,99.90
2023-02-24T21:26:07.944Z,99.90
2023-02-24T21:28:36.927Z,99.90
2023-02-24T21:31:17.245Z,99.90
2023-02-24T21:33:45.275Z,99.90
2023-02-24T21:36:20.892Z,99.40
2023-02-24T21:38:54.289Z,99.90
2023-02-24T21:41:23.560Z,99.90
2023-02-24T21:43:54.604Z,99.90
2023-02-24T21:46:24.402Z,99.90
2023-02-24T21:48:58.798Z,99.90
2023-02-24T21:51:31.392Z,99.90
2023-02-24T21:53:59.304Z,99.90
2023-02-24T21:56:28.625Z,96.80
2023-02-24T21:59:06.224Z,99.90
2023-02-24T22:01:35.442Z,99.90
2023-02-24T22:04:05.196Z,99.90
2023-02-24T22:06:39.294Z,99.90
2023-02-24T22:09:09.168Z,99.90
2023-02-24T22:11:41.053Z,99.90
2023-02-24T22:14:09.731Z,99.30
2023-02-24T22:16:37.830Z,99.90
2023-02-24T22:19:06.510Z,99.90
2023-02-24T22:21:39.161Z,99.90
2023-02-24T22:24:15.954Z,99.90
2023-02-24T22:26:44.114Z,99.90
2023-02-24T22:29:12.096Z,99.90
2023-02-24T22:31:43.302Z,99.90
2023-02-24T22:34:12.256Z,99.90
2023-02-24T22:36:40.111Z,99.90
2023-02-24T22:39:18.607Z,99.90
2023-02-24T22:41:52.688Z,99.90
2023-02-24T22:44:26.462Z,95.70
2023-02-24T22:46:54.366Z,99.70
2023-02-24T22:49:25.293Z,99.90
2023-02-24T22:51:55.987Z,99.90
2023-02-24T22:54:27.784Z,99.90
2023-02-24T22:56:58.448Z,99.90
2023-02-24T22:59:28.678Z,99.90
2023-02-24T23:02:03.193Z,99.90
2023-02-24T23:04:36.885Z,99.90
2023-02-24T23:07:07.799Z,99.90
2023-02-24T23:09:37.123Z,99.90
2023-02-24T23:12:05.396Z,99.90
2023-02-24T23:14:36.138Z,99.90
2023-02-24T23:17:04.002Z,99.90
2023-02-24T23:19:31.876Z,99.90
2023-02-24T23:22:09.209Z,99.90
2023-02-24T23:24:38.435Z,99.90
2023-02-24T23:27:09.818Z,98.60
2023-02-24T23:29:37.739Z,99.20
2023-02-24T23:32:06.003Z,99.90
2023-02-24T23:34:34.098Z,99.90
2023-02-24T23:37:13.966Z,99.90
2023-02-24T23:39:45.424Z,99.90
2023-02-24T23:42:13.928Z,98.50
2023-02-24T23:44:50.107Z,99.90
2023-02-24T23:47:17.972Z,99.90
2023-02-24T23:49:52.194Z,98.90
2023-02-24T23:52:25.073Z,99.90
2023-02-24T23:54:54.633Z,99.90
2023-02-24T23:57:25.317Z,99.90
